KAL45A RKSS-RJFK
Flight info
| Callsign | KAL45A |
|---|---|
| Flight time | N/A |
| Altitude | 39000 |
| Route | OSPOT2Q OSPOT Y782 TGU Y781 BESNA Y209 IKE A582 HKC |
| Aircraft | A333/H-SDE3GHIJ2J3J5M1RVWXY/LB2D1 |
Departure
| Time | 2026-04-30 14:39 |
|---|---|
| Airport | Gimpo International Airport (RKSS) |
Arrival
| Time | N/A |
|---|---|
| Airport | Kagoshima Airport (RJFK) |
| Time | Latitude | Longitude | Altitude | Speed | Heading |
|---|---|---|---|---|---|
| 2026-04-30 14:08 | 37.55670 | 126.80432 | 50 ft | 0 kts | 44° |
| 2026-04-30 14:29 | 37.55649 | 126.80406 | 49 ft | 3 kts | 44° |
| 2026-04-30 14:30 | 37.55605 | 126.80353 | 50 ft | 3 kts | 58° |
| 2026-04-30 14:31 | 37.55607 | 126.80309 | 49 ft | 3 kts | 147° |
| 2026-04-30 14:31 | 37.55610 | 126.80306 | 49 ft | 0 kts | 154° |
| 2026-04-30 14:32 | 37.55562 | 126.80287 | 49 ft | 0 kts | 222° |
| 2026-04-30 14:34 | 37.55557 | 126.80282 | 50 ft | 2 kts | 222° |
| 2026-04-30 14:35 | 37.55532 | 126.80253 | 50 ft | 4 kts | 225° |
| 2026-04-30 14:35 | 37.55501 | 126.80215 | 51 ft | 6 kts | 224° |
| 2026-04-30 14:35 | 37.55463 | 126.80186 | 54 ft | 7 kts | 194° |
| 2026-04-30 14:36 | 37.55416 | 126.80206 | 52 ft | 8 kts | 142° |
| 2026-04-30 14:36 | 37.55364 | 126.80267 | 49 ft | 12 kts | 136° |
| 2026-04-30 14:36 | 37.55295 | 126.80353 | 51 ft | 16 kts | 135° |
| 2026-04-30 14:36 | 37.55209 | 126.80461 | 51 ft | 19 kts | 135° |
| 2026-04-30 14:37 | 37.55125 | 126.80478 | 54 ft | 10 kts | 211° |
| 2026-04-30 14:37 | 37.55067 | 126.80413 | 51 ft | 12 kts | 224° |
| 2026-04-30 14:37 | 37.55001 | 126.80331 | 58 ft | 15 kts | 225° |
| 2026-04-30 14:37 | 37.54917 | 126.80225 | 53 ft | 19 kts | 225° |
| 2026-04-30 14:38 | 37.54842 | 126.80095 | 51 ft | 14 kts | 269° |
| 2026-04-30 14:38 | 37.54912 | 126.79962 | 53 ft | 37 kts | 310° |
| 2026-04-30 14:38 | 37.55260 | 126.79521 | 48 ft | 107 kts | 315° |
| 2026-04-30 14:38 | 37.55845 | 126.78804 | 214 ft | 152 kts | 315° |
| 2026-04-30 14:39 | 37.56332 | 126.78222 | 653 ft | 158 kts | 315° |
| 2026-04-30 14:39 | 37.57117 | 126.77181 | 1552 ft | 169 kts | 311° |
| 2026-04-30 14:39 | 37.58102 | 126.75726 | 2639 ft | 164 kts | 315° |
| 2026-04-30 14:40 | 37.59670 | 126.73850 | 3112 ft | 208 kts | 317° |
| 2026-04-30 14:40 | 37.60770 | 126.72528 | 3432 ft | 234 kts | 315° |
| 2026-04-30 14:40 | 37.61769 | 126.70792 | 3952 ft | 250 kts | 294° |
| 2026-04-30 14:40 | 37.62061 | 126.68617 | 4603 ft | 265 kts | 265° |
| 2026-04-30 14:41 | 37.61387 | 126.66366 | 4965 ft | 291 kts | 236° |
| 2026-04-30 14:41 | 37.60035 | 126.64364 | 5236 ft | 299 kts | 227° |
| 2026-04-30 14:41 | 37.58587 | 126.62486 | 5559 ft | 302 kts | 226° |
| 2026-04-30 14:41 | 37.57042 | 126.60556 | 5846 ft | 324 kts | 220° |
| 2026-04-30 14:42 | 37.55000 | 126.59166 | 6185 ft | 345 kts | 195° |
| 2026-04-30 14:42 | 37.52690 | 126.58700 | 6642 ft | 322 kts | 186° |
| 2026-04-30 14:42 | 37.50491 | 126.58454 | 7063 ft | 312 kts | 185° |
| 2026-04-30 14:42 | 37.48390 | 126.58228 | 8176 ft | 300 kts | 185° |
| 2026-04-30 14:43 | 37.46361 | 126.57993 | 9576 ft | 287 kts | 186° |
| 2026-04-30 14:43 | 37.44409 | 126.57752 | 10723 ft | 279 kts | 186° |
| 2026-04-30 14:43 | 37.42458 | 126.57502 | 11503 ft | 285 kts | 185° |
| 2026-04-30 14:43 | 37.40420 | 126.57407 | 11919 ft | 304 kts | 176° |
| 2026-04-30 14:44 | 37.38240 | 126.57805 | 12023 ft | 330 kts | 169° |
| 2026-04-30 14:44 | 37.35941 | 126.58427 | 12464 ft | 343 kts | 167° |
| 2026-04-30 14:44 | 37.33641 | 126.59258 | 13234 ft | 345 kts | 158° |
| 2026-04-30 14:44 | 37.31590 | 126.60849 | 13987 ft | 349 kts | 139° |
| 2026-04-30 14:45 | 37.29931 | 126.63110 | 14639 ft | 354 kts | 131° |
| 2026-04-30 14:45 | 37.28389 | 126.65541 | 15277 ft | 358 kts | 129° |
| 2026-04-30 14:45 | 37.26844 | 126.68017 | 15914 ft | 361 kts | 130° |
| 2026-04-30 14:45 | 37.25295 | 126.70484 | 16534 ft | 364 kts | 130° |
| 2026-04-30 14:46 | 37.23714 | 126.72982 | 17173 ft | 367 kts | 130° |
| 2026-04-30 14:46 | 37.22115 | 126.75498 | 17795 ft | 370 kts | 130° |
| 2026-04-30 14:46 | 37.20511 | 126.78013 | 18499 ft | 369 kts | 130° |
| 2026-04-30 14:46 | 37.18892 | 126.80546 | 19056 ft | 372 kts | 130° |
| 2026-04-30 14:47 | 37.17266 | 126.83086 | 19579 ft | 374 kts | 130° |
| 2026-04-30 14:47 | 37.15652 | 126.85605 | 20115 ft | 376 kts | 131° |
| 2026-04-30 14:47 | 37.14004 | 126.88173 | 20635 ft | 379 kts | 131° |
| 2026-04-30 14:47 | 37.12349 | 126.90751 | 21183 ft | 381 kts | 131° |
| 2026-04-30 14:48 | 37.10675 | 126.93358 | 21704 ft | 383 kts | 131° |
| 2026-04-30 14:48 | 37.08999 | 126.95965 | 22229 ft | 385 kts | 131° |
| 2026-04-30 14:48 | 37.07309 | 126.98590 | 22750 ft | 387 kts | 131° |
| 2026-04-30 14:48 | 37.05613 | 127.01221 | 23262 ft | 389 kts | 132° |
| 2026-04-30 14:49 | 37.03909 | 127.03865 | 23722 ft | 391 kts | 132° |
| 2026-04-30 14:49 | 37.02195 | 127.06521 | 24087 ft | 394 kts | 132° |
| 2026-04-30 14:49 | 37.00488 | 127.09165 | 24430 ft | 397 kts | 132° |
| 2026-04-30 14:49 | 36.98748 | 127.11857 | 24795 ft | 400 kts | 133° |
| 2026-04-30 14:50 | 36.95223 | 127.17307 | 25534 ft | 405 kts | 133° |
| 2026-04-30 14:50 | 36.93444 | 127.20052 | 25897 ft | 407 kts | 133° |
| 2026-04-30 14:51 | 36.89853 | 127.25590 | 26595 ft | 412 kts | 134° |
| 2026-04-30 14:51 | 36.88040 | 127.28382 | 26957 ft | 414 kts | 134° |
| 2026-04-30 14:51 | 36.84400 | 127.33947 | 27652 ft | 417 kts | 136° |
| 2026-04-30 14:52 | 36.82437 | 127.36631 | 27963 ft | 418 kts | 139° |
| 2026-04-30 14:52 | 36.78308 | 127.41795 | 28627 ft | 422 kts | 141° |
| 2026-04-30 14:52 | 36.76194 | 127.44354 | 28945 ft | 424 kts | 141° |
| 2026-04-30 14:53 | 36.71935 | 127.49506 | 29611 ft | 428 kts | 142° |
| 2026-04-30 14:53 | 36.69806 | 127.52097 | 29972 ft | 429 kts | 142° |
| 2026-04-30 14:54 | 36.65511 | 127.57332 | 30389 ft | 435 kts | 142° |
| 2026-04-30 14:54 | 36.61159 | 127.62644 | 30862 ft | 440 kts | 142° |
| 2026-04-30 14:55 | 36.56777 | 127.67989 | 31313 ft | 445 kts | 142° |
| 2026-04-30 14:55 | 36.54559 | 127.70692 | 31555 ft | 447 kts | 142° |
| 2026-04-30 14:55 | 36.50111 | 127.76111 | 32221 ft | 446 kts | 142° |
| 2026-04-30 14:56 | 36.45662 | 127.81517 | 32841 ft | 447 kts | 142° |
| 2026-04-30 14:56 | 36.41226 | 127.86896 | 33408 ft | 449 kts | 142° |
| 2026-04-30 14:57 | 36.38986 | 127.89611 | 33705 ft | 449 kts | 142° |
| 2026-04-30 14:57 | 36.34503 | 127.95039 | 34199 ft | 450 kts | 143° |
| 2026-04-30 14:58 | 36.30005 | 128.00478 | 34622 ft | 451 kts | 143° |
| 2026-04-30 14:58 | 36.27757 | 128.03190 | 34776 ft | 452 kts | 143° |
| 2026-04-30 14:58 | 36.23261 | 128.08602 | 35162 ft | 454 kts | 143° |
| 2026-04-30 14:59 | 36.18711 | 128.14068 | 35557 ft | 456 kts | 143° |
| 2026-04-30 15:00 | 36.11845 | 128.22307 | 36128 ft | 457 kts | 144° |
| 2026-04-30 15:00 | 36.07280 | 128.27780 | 36543 ft | 458 kts | 144° |
| 2026-04-30 15:01 | 36.02724 | 128.33225 | 37046 ft | 458 kts | 144° |
| 2026-04-30 15:01 | 36.00427 | 128.35969 | 37164 ft | 461 kts | 144° |
| 2026-04-30 15:01 | 35.95787 | 128.41490 | 37429 ft | 464 kts | 144° |
| 2026-04-30 15:02 | 35.93462 | 128.44256 | 37612 ft | 464 kts | 144° |
| 2026-04-30 15:02 | 35.91133 | 128.47025 | 37797 ft | 465 kts | 144° |
| 2026-04-30 15:03 | 35.83853 | 128.54806 | 38300 ft | 453 kts | 156° |
| 2026-04-30 15:03 | 35.78184 | 128.57768 | 38604 ft | 435 kts | 174° |
| 2026-04-30 15:04 | 35.72311 | 128.58364 | 38885 ft | 422 kts | 187° |
| 2026-04-30 15:04 | 35.63522 | 128.57608 | 38934 ft | 420 kts | 190° |
| 2026-04-30 15:06 | 35.48890 | 128.56829 | 38926 ft | 430 kts | 178° |
| 2026-04-30 15:06 | 35.43090 | 128.58964 | 38919 ft | 445 kts | 165° |
| 2026-04-30 15:07 | 35.37432 | 128.62189 | 38930 ft | 450 kts | 162° |
| 2026-04-30 15:08 | 35.26218 | 128.68996 | 38931 ft | 448 kts | 163° |
| 2026-04-30 15:09 | 35.12257 | 128.77260 | 38922 ft | 446 kts | 163° |
| 2026-04-30 15:10 | 35.01070 | 128.83949 | 38913 ft | 452 kts | 159° |
| 2026-04-30 15:11 | 34.84970 | 128.95970 | 38924 ft | 450 kts | 158° |
| 2026-04-30 15:13 | 34.71640 | 129.05985 | 38918 ft | 450 kts | 159° |
| 2026-04-30 15:14 | 34.53291 | 129.20546 | 38917 ft | 453 kts | 155° |
| 2026-04-30 15:17 | 34.30523 | 129.40917 | 38908 ft | 449 kts | 156° |
| 2026-04-30 15:19 | 34.10481 | 129.58718 | 38865 ft | 444 kts | 158° |